sensor_id;sensor_type;location;lat;lon;timestamp;temperature;humidity
25741;DHT22;13592;50.838;4.412;2022-10-16T00:01:13;16.70;99.90
25741;DHT22;13592;50.838;4.412;2022-10-16T00:03:44;16.80;99.90
25741;DHT22;13592;50.838;4.412;2022-10-16T00:06:10;16.80;99.90
25741;DHT22;13592;50.838;4.412;2022-10-16T00:08:51;16.90;99.90
25741;DHT22;13592;50.838;4.412;2022-10-16T00:11:27;16.90;99.90
25741;DHT22;13592;50.838;4.412;2022-10-16T00:14:10;16.70;99.90
25741;DHT22;13592;50.838;4.412;2022-10-16T00:17:19;16.80;99.90
25741;DHT22;13592;50.838;4.412;2022-10-16T00:20:02;16.70;99.90
25741;DHT22;13592;50.838;4.412;2022-10-16T00:22:37;16.80;99.90
25741;DHT22;13592;50.838;4.412;2022-10-16T00:31:19;16.60;99.90
25741;DHT22;13592;50.838;4.412;2022-10-16T00:39:44;16.80;99.90
25741;DHT22;13592;50.838;4.412;2022-10-16T00:44:47;16.70;99.90
25741;DHT22;13592;50.838;4.412;2022-10-16T00:47:34;16.60;99.90
25741;DHT22;13592;50.838;4.412;2022-10-16T00:50:32;16.40;99.90
25741;DHT22;13592;50.838;4.412;2022-10-16T00:53:04;16.40;99.90
25741;DHT22;13592;50.838;4.412;2022-10-16T00:55:35;16.30;99.90
25741;DHT22;13592;50.838;4.412;2022-10-16T01:01:23;16.50;99.90
25741;DHT22;13592;50.838;4.412;2022-10-16T01:04:07;16.50;99.90
25741;DHT22;13592;50.838;4.412;2022-10-16T01:09:52;16.60;99.90
25741;DHT22;13592;50.838;4.412;2022-10-16T01:18:01;16.50;99.90
25741;DHT22;13592;50.838;4.412;2022-10-16T01:20:35;16.50;99.90
25741;DHT22;13592;50.838;4.412;2022-10-16T01:34:33;16.30;99.90
25741;DHT22;13592;50.838;4.412;2022-10-16T01:37:05;16.20;99.90
25741;DHT22;13592;50.838;4.412;2022-10-16T01:39:36;16.30;99.90
25741;DHT22;13592;50.838;4.412;2022-10-16T01:42:11;16.30;99.90
25741;DHT22;13592;50.838;4.412;2022-10-16T01:44:41;16.50;99.90
25741;DHT22;13592;50.838;4.412;2022-10-16T01:47:15;16.50;99.90
25741;DHT22;13592;50.838;4.412;2022-10-16T01:49:57;16.50;99.90
25741;DHT22;13592;50.838;4.412;2022-10-16T01:52:27;16.60;99.90
25741;DHT22;13592;50.838;4.412;2022-10-16T01:57:44;16.60;99.90
25741;DHT22;13592;50.838;4.412;2022-10-16T02:00:23;16.60;99.90
25741;DHT22;13592;50.838;4.412;2022-10-16T02:05:54;16.50;99.90
25741;DHT22;13592;50.838;4.412;2022-10-16T02:08:25;16.30;99.90
25741;DHT22;13592;50.838;4.412;2022-10-16T02:10:56;16.20;99.90
25741;DHT22;13592;50.838;4.412;2022-10-16T02:13:55;16.20;99.90
25741;DHT22;13592;50.838;4.412;2022-10-16T02:16:35;16.20;99.90
25741;DHT22;13592;50.838;4.412;2022-10-16T02:19:02;16.30;99.90
25741;DHT22;13592;50.838;4.412;2022-10-16T02:26:53;16.40;99.90
25741;DHT22;13592;50.838;4.412;2022-10-16T02:29:23;16.40;99.90
25741;DHT22;13592;50.838;4.412;2022-10-16T02:31:57;16.50;99.90
25741;DHT22;13592;50.838;4.412;2022-10-16T02:37:21;16.30;99.90
25741;DHT22;13592;50.838;4.412;2022-10-16T02:39:53;16.30;99.90
25741;DHT22;13592;50.838;4.412;2022-10-16T02:44:48;16.00;99.90
25741;DHT22;13592;50.838;4.412;2022-10-16T02:47:16;16.00;99.90
25741;DHT22;13592;50.838;4.412;2022-10-16T02:49:43;16.00;99.90
25741;DHT22;13592;50.838;4.412;2022-10-16T02:52:08;16.10;99.90
25741;DHT22;13592;50.838;4.412;2022-10-16T02:54:34;16.00;99.90
25741;DHT22;13592;50.838;4.412;2022-10-16T02:57:08;16.10;99.90
25741;DHT22;13592;50.838;4.412;2022-10-16T02:59:35;16.40;99.90
25741;DHT22;13592;50.838;4.412;2022-10-16T03:10:05;16.30;99.90
25741;DHT22;13592;50.838;4.412;2022-10-16T03:12:33;16.30;99.90
25741;DHT22;13592;50.838;4.412;2022-10-16T03:15:14;16.30;99.90
25741;DHT22;13592;50.838;4.412;2022-10-16T03:17:52;16.30;99.90
25741;DHT22;13592;50.838;4.412;2022-10-16T03:20:38;16.20;99.90
25741;DHT22;13592;50.838;4.412;2022-10-16T03:23:06;16.10;99.90
25741;DHT22;13592;50.838;4.412;2022-10-16T03:25:44;16.30;99.90
25741;DHT22;13592;50.838;4.412;2022-10-16T03:28:11;16.30;99.90
25741;DHT22;13592;50.838;4.412;2022-10-16T03:30:50;16.00;99.90
25741;DHT22;13592;50.838;4.412;2022-10-16T03:33:18;16.00;99.90
25741;DHT22;13592;50.838;4.412;2022-10-16T03:38:46;16.00;99.90
25741;DHT22;13592;50.838;4.412;2022-10-16T03:41:28;15.90;99.90
25741;DHT22;13592;50.838;4.412;2022-10-16T03:43:55;15.90;99.90
25741;DHT22;13592;50.838;4.412;2022-10-16T03:46:25;15.90;99.90
25741;DHT22;13592;50.838;4.412;2022-10-16T03:48:57;15.90;99.90
25741;DHT22;13592;50.838;4.412;2022-10-16T03:54:00;16.40;99.90
25741;DHT22;13592;50.838;4.412;2022-10-16T03:56:29;16.50;99.90
25741;DHT22;13592;50.838;4.412;2022-10-16T03:58:59;16.20;99.90
25741;DHT22;13592;50.838;4.412;2022-10-16T04:01:40;16.20;99.90
25741;DHT22;13592;50.838;4.412;2022-10-16T04:04:09;16.30;99.90
25741;DHT22;13592;50.838;4.412;2022-10-16T04:06:56;16.20;99.90
25741;DHT22;13592;50.838;4.412;2022-10-16T04:09:22;16.50;99.90
25741;DHT22;13592;50.838;4.412;2022-10-16T04:12:07;16.60;99.90
25741;DHT22;13592;50.838;4.412;2022-10-16T04:14:41;16.60;99.90
25741;DHT22;13592;50.838;4.412;2022-10-16T04:17:20;16.60;99.90
25741;DHT22;13592;50.838;4.412;2022-10-16T04:19:53;16.40;99.90
25741;DHT22;13592;50.838;4.412;2022-10-16T04:27:57;16.30;99.90
25741;DHT22;13592;50.838;4.412;2022-10-16T04:35:38;16.10;99.90
25741;DHT22;13592;50.838;4.412;2022-10-16T04:38:06;16.20;99.90
25741;DHT22;13592;50.838;4.412;2022-10-16T04:40:41;16.10;99.90
25741;DHT22;13592;50.838;4.412;2022-10-16T04:43:18;16.20;99.90
25741;DHT22;13592;50.838;4.412;2022-10-16T04:51:34;16.20;99.90
25741;DHT22;13592;50.838;4.412;2022-10-16T04:54:03;16.10;99.90
25741;DHT22;13592;50.838;4.412;2022-10-16T04:56:29;16.00;99.90
25741;DHT22;13592;50.838;4.412;2022-10-16T04:59:09;15.90;99.90
25741;DHT22;13592;50.838;4.412;2022-10-16T05:01:41;16.10;99.90
25741;DHT22;13592;50.838;4.412;2022-10-16T05:04:17;16.10;99.90
25741;DHT22;13592;50.838;4.412;2022-10-16T05:06:47;16.30;99.90
25741;DHT22;13592;50.838;4.412;2022-10-16T05:09:23;16.40;99.90
25741;DHT22;13592;50.838;4.412;2022-10-16T05:12:03;16.40;99.90
25741;DHT22;13592;50.838;4.412;2022-10-16T05:14:32;16.40;99.90
25741;DHT22;13592;50.838;4.412;2022-10-16T05:17:13;16.30;99.90
25741;DHT22;13592;50.838;4.412;2022-10-16T05:19:52;16.30;99.90
25741;DHT22;13592;50.838;4.412;2022-10-16T05:22:21;16.00;99.90
25741;DHT22;13592;50.838;4.412;2022-10-16T05:27:20;15.90;99.90
25741;DHT22;13592;50.838;4.412;2022-10-16T05:30:19;15.80;99.90
25741;DHT22;13592;50.838;4.412;2022-10-16T05:32:51;16.00;99.90
25741;DHT22;13592;50.838;4.412;2022-10-16T05:35:23;15.80;99.90
25741;DHT22;13592;50.838;4.412;2022-10-16T05:37:52;15.90;99.90
25741;DHT22;13592;50.838;4.412;2022-10-16T05:40:18;15.80;99.90
25741;DHT22;13592;50.838;4.412;2022-10-16T05:42:44;16.10;99.90
25741;DHT22;13592;50.838;4.412;2022-10-16T05:45:11;16.00;99.90
25741;DHT22;13592;50.838;4.412;2022-10-16T05:47:44;15.90;99.90
25741;DHT22;13592;50.838;4.412;2022-10-16T05:50:11;16.00;99.90
25741;DHT22;13592;50.838;4.412;2022-10-16T05:52:40;16.20;99.90
25741;DHT22;13592;50.838;4.412;2022-10-16T05:55:11;16.10;99.90
25741;DHT22;13592;50.838;4.412;2022-10-16T05:57:36;16.10;99.90
25741;DHT22;13592;50.838;4.412;2022-10-16T06:00:05;16.00;99.90
25741;DHT22;13592;50.838;4.412;2022-10-16T06:02:30;16.10;99.90
25741;DHT22;13592;50.838;4.412;2022-10-16T06:07:29;16.00;99.90
25741;DHT22;13592;50.838;4.412;2022-10-16T06:09:55;15.80;99.90
25741;DHT22;13592;50.838;4.412;2022-10-16T06:12:20;15.80;99.90
25741;DHT22;13592;50.838;4.412;2022-10-16T06:14:46;15.80;99.90
25741;DHT22;13592;50.838;4.412;2022-10-16T06:17:18;15.90;99.90
25741;DHT22;13592;50.838;4.412;2022-10-16T06:19:52;16.20;99.90
25741;DHT22;13592;50.838;4.412;2022-10-16T06:22:18;16.40;99.90
25741;DHT22;13592;50.838;4.412;2022-10-16T06:24:52;16.20;99.90
25741;DHT22;13592;50.838;4.412;2022-10-16T06:27:20;16.00;99.90
25741;DHT22;13592;50.838;4.412;2022-10-16T06:29:49;16.10;99.90
25741;DHT22;13592;50.838;4.412;2022-10-16T06:32:16;16.20;99.90
25741;DHT22;13592;50.838;4.412;2022-10-16T06:35:02;16.10;99.90
25741;DHT22;13592;50.838;4.412;2022-10-16T06:37:29;15.90;99.90
25741;DHT22;13592;50.838;4.412;2022-10-16T06:39:57;15.80;99.90
25741;DHT22;13592;50.838;4.412;2022-10-16T06:45:06;15.80;99.90
25741;DHT22;13592;50.838;4.412;2022-10-16T06:47:35;15.80;99.90
25741;DHT22;13592;50.838;4.412;2022-10-16T06:50:02;16.00;99.90
25741;DHT22;13592;50.838;4.412;2022-10-16T06:52:32;16.10;99.90
25741;DHT22;13592;50.838;4.412;2022-10-16T06:55:04;16.10;99.90
25741;DHT22;13592;50.838;4.412;2022-10-16T06:57:34;16.30;99.90
25741;DHT22;13592;50.838;4.412;2022-10-16T07:02:42;16.70;99.90
25741;DHT22;13592;50.838;4.412;2022-10-16T07:05:08;16.70;99.90
25741;DHT22;13592;50.838;4.412;2022-10-16T07:10:03;16.90;99.90
25741;DHT22;13592;50.838;4.412;2022-10-16T07:12:40;16.80;99.90
25741;DHT22;13592;50.838;4.412;2022-10-16T07:15:09;16.80;99.90
25741;DHT22;13592;50.838;4.412;2022-10-16T07:17:41;16.80;99.90
25741;DHT22;13592;50.838;4.412;2022-10-16T07:20:13;16.90;99.90
25741;DHT22;13592;50.838;4.412;2022-10-16T07:22:42;16.80;99.90
25741;DHT22;13592;50.838;4.412;2022-10-16T07:27:42;16.50;99.90
25741;DHT22;13592;50.838;4.412;2022-10-16T07:30:09;16.50;99.90
25741;DHT22;13592;50.838;4.412;2022-10-16T07:32:40;16.60;99.90
25741;DHT22;13592;50.838;4.412;2022-10-16T07:35:15;16.80;99.90
25741;DHT22;13592;50.838;4.412;2022-10-16T07:37:44;16.80;99.90
25741;DHT22;13592;50.838;4.412;2022-10-16T07:40:11;16.80;99.90
25741;DHT22;13592;50.838;4.412;2022-10-16T07:42:44;16.80;99.90
25741;DHT22;13592;50.838;4.412;2022-10-16T07:45:11;16.70;99.90
25741;DHT22;13592;50.838;4.412;2022-10-16T07:52:51;16.60;99.90
25741;DHT22;13592;50.838;4.412;2022-10-16T07:55:22;16.70;99.90
25741;DHT22;13592;50.838;4.412;2022-10-16T07:57:51;16.90;99.90
25741;DHT22;13592;50.838;4.412;2022-10-16T08:00:29;17.10;99.90
25741;DHT22;13592;50.838;4.412;2022-10-16T08:02:58;17.20;99.90
25741;DHT22;13592;50.838;4.412;2022-10-16T08:05:29;17.30;99.90
25741;DHT22;13592;50.838;4.412;2022-10-16T08:08:03;17.30;99.90
25741;DHT22;13592;50.838;4.412;2022-10-16T08:10:29;17.30;99.90
25741;DHT22;13592;50.838;4.412;2022-10-16T08:12:56;17.10;99.90
25741;DHT22;13592;50.838;4.412;2022-10-16T08:15:30;17.20;99.90
25741;DHT22;13592;50.838;4.412;2022-10-16T08:17:58;17.20;99.90
25741;DHT22;13592;50.838;4.412;2022-10-16T08:20:33;17.40;99.90
25741;DHT22;13592;50.838;4.412;2022-10-16T08:23:01;17.20;99.90
25741;DHT22;13592;50.838;4.412;2022-10-16T08:25:29;17.40;99.90
25741;DHT22;13592;50.838;4.412;2022-10-16T08:28:00;17.50;99.90
25741;DHT22;13592;50.838;4.412;2022-10-16T08:30:33;17.40;99.90
25741;DHT22;13592;50.838;4.412;2022-10-16T08:32:59;17.40;99.90
25741;DHT22;13592;50.838;4.412;2022-10-16T08:35:25;17.50;99.90
25741;DHT22;13592;50.838;4.412;2022-10-16T08:37:51;17.50;99.90
25741;DHT22;13592;50.838;4.412;2022-10-16T08:40:18;17.60;99.90
25741;DHT22;13592;50.838;4.412;2022-10-16T08:56:28;17.70;99.90
25741;DHT22;13592;50.838;4.412;2022-10-16T08:58:54;17.80;99.90
25741;DHT22;13592;50.838;4.412;2022-10-16T09:01:20;18.00;99.90
25741;DHT22;13592;50.838;4.412;2022-10-16T09:14:39;19.60;99.90
25741;DHT22;13592;50.838;4.412;2022-10-16T09:22:27;19.40;99.90
25741;DHT22;13592;50.838;4.412;2022-10-16T09:24:58;19.20;99.90
25741;DHT22;13592;50.838;4.412;2022-10-16T09:27:26;19.40;99.90
25741;DHT22;13592;50.838;4.412;2022-10-16T09:29:53;19.50;99.90
25741;DHT22;13592;50.838;4.412;2022-10-16T09:32:19;19.10;99.90
25741;DHT22;13592;50.838;4.412;2022-10-16T09:34:52;19.00;99.90
25741;DHT22;13592;50.838;4.412;2022-10-16T09:37:20;18.80;99.90
25741;DHT22;13592;50.838;4.412;2022-10-16T09:42:35;18.90;99.90
25741;DHT22;13592;50.838;4.412;2022-10-16T09:45:03;19.20;99.90
25741;DHT22;13592;50.838;4.412;2022-10-16T09:47:30;19.50;99.90
25741;DHT22;13592;50.838;4.412;2022-10-16T09:53:08;19.40;99.90
25741;DHT22;13592;50.838;4.412;2022-10-16T09:55:48;19.60;99.90
25741;DHT22;13592;50.838;4.412;2022-10-16T09:58:17;19.40;99.90
25741;DHT22;13592;50.838;4.412;2022-10-16T10:01:02;19.30;99.90
25741;DHT22;13592;50.838;4.412;2022-10-16T10:09:37;19.70;99.90
25741;DHT22;13592;50.838;4.412;2022-10-16T10:15:17;20.70;99.90
25741;DHT22;13592;50.838;4.412;2022-10-16T10:17:50;20.70;99.90
25741;DHT22;13592;50.838;4.412;2022-10-16T10:20:24;20.40;99.90
25741;DHT22;13592;50.838;4.412;2022-10-16T10:22:53;20.30;99.90
25741;DHT22;13592;50.838;4.412;2022-10-16T10:36:37;19.80;99.90
25741;DHT22;13592;50.838;4.412;2022-10-16T10:39:23;19.80;99.90
25741;DHT22;13592;50.838;4.412;2022-10-16T10:56:14;19.30;99.90
25741;DHT22;13592;50.838;4.412;2022-10-16T11:06:18;19.40;99.90
25741;DHT22;13592;50.838;4.412;2022-10-16T11:15:24;19.40;99.90
25741;DHT22;13592;50.838;4.412;2022-10-16T11:17:25;19.50;99.90
25741;DHT22;13592;50.838;4.412;2022-10-16T11:20:02;19.70;99.90
25741;DHT22;13592;50.838;4.412;2022-10-16T11:22:42;19.70;99.90
25741;DHT22;13592;50.838;4.412;2022-10-16T11:25:29;19.70;99.90
25741;DHT22;13592;50.838;4.412;2022-10-16T11:28:15;19.70;99.90
25741;DHT22;13592;50.838;4.412;2022-10-16T11:45:07;19.50;99.90
25741;DHT22;13592;50.838;4.412;2022-10-16T11:47:43;19.50;99.90
25741;DHT22;13592;50.838;4.412;2022-10-16T11:50:28;19.70;99.90
25741;DHT22;13592;50.838;4.412;2022-10-16T11:55:55;20.10;99.90
25741;DHT22;13592;50.838;4.412;2022-10-16T12:01:19;19.90;99.90
25741;DHT22;13592;50.838;4.412;2022-10-16T12:07:08;19.60;99.90
25741;DHT22;13592;50.838;4.412;2022-10-16T12:09:53;19.80;99.90
25741;DHT22;13592;50.838;4.412;2022-10-16T12:12:39;20.10;99.90
25741;DHT22;13592;50.838;4.412;2022-10-16T12:15:27;20.20;99.90
25741;DHT22;13592;50.838;4.412;2022-10-16T12:18:07;20.40;99.90
25741;DHT22;13592;50.838;4.412;2022-10-16T12:26:37;20.10;99.90
25741;DHT22;13592;50.838;4.412;2022-10-16T12:37:19;20.40;99.90
25741;DHT22;13592;50.838;4.412;2022-10-16T12:39:52;20.20;99.90
25741;DHT22;13592;50.838;4.412;2022-10-16T12:42:50;20.20;99.90
25741;DHT22;13592;50.838;4.412;2022-10-16T12:48:22;20.40;99.90
25741;DHT22;13592;50.838;4.412;2022-10-16T12:50:54;20.30;99.90
25741;DHT22;13592;50.838;4.412;2022-10-16T13:08:12;20.10;99.90
25741;DHT22;13592;50.838;4.412;2022-10-16T13:10:55;20.40;99.90
25741;DHT22;13592;50.838;4.412;2022-10-16T13:13:47;20.30;99.90
25741;DHT22;13592;50.838;4.412;2022-10-16T13:16:41;20.10;99.90
25741;DHT22;13592;50.838;4.412;2022-10-16T13:19:26;19.90;99.90
25741;DHT22;13592;50.838;4.412;2022-10-16T13:22:05;19.80;99.90
25741;DHT22;13592;50.838;4.412;2022-10-16T13:27:29;19.80;99.90
25741;DHT22;13592;50.838;4.412;2022-10-16T13:30:12;19.80;99.90
25741;DHT22;13592;50.838;4.412;2022-10-16T13:35:35;19.90;99.90
25741;DHT22;13592;50.838;4.412;2022-10-16T13:41:24;20.20;99.90
25741;DHT22;13592;50.838;4.412;2022-10-16T13:46:45;20.10;99.90
25741;DHT22;13592;50.838;4.412;2022-10-16T13:49:19;20.00;99.90
25741;DHT22;13592;50.838;4.412;2022-10-16T13:52:19;20.10;99.90
25741;DHT22;13592;50.838;4.412;2022-10-16T13:57:49;20.10;99.90
25741;DHT22;13592;50.838;4.412;2022-10-16T14:03:38;20.20;99.90
25741;DHT22;13592;50.838;4.412;2022-10-16T14:06:06;20.00;99.90
25741;DHT22;13592;50.838;4.412;2022-10-16T14:08:53;20.20;99.90
25741;DHT22;13592;50.838;4.412;2022-10-16T14:14:15;19.90;99.90
25741;DHT22;13592;50.838;4.412;2022-10-16T14:16:42;19.70;99.90
25741;DHT22;13592;50.838;4.412;2022-10-16T14:19:29;19.50;99.90
25741;DHT22;13592;50.838;4.412;2022-10-16T14:22:02;20.00;99.90
25741;DHT22;13592;50.838;4.412;2022-10-16T14:24:39;20.10;99.90
25741;DHT22;13592;50.838;4.412;2022-10-16T14:33:02;20.00;99.90
25741;DHT22;13592;50.838;4.412;2022-10-16T14:35:32;20.10;99.90
25741;DHT22;13592;50.838;4.412;2022-10-16T14:38:05;20.10;99.90
25741;DHT22;13592;50.838;4.412;2022-10-16T14:43:35;20.00;99.90
25741;DHT22;13592;50.838;4.412;2022-10-16T14:46:05;19.90;99.90
25741;DHT22;13592;50.838;4.412;2022-10-16T14:51:42;19.80;99.90
25741;DHT22;13592;50.838;4.412;2022-10-16T14:54:17;19.80;99.90
25741;DHT22;13592;50.838;4.412;2022-10-16T14:56:55;19.60;99.90
25741;DHT22;13592;50.838;4.412;2022-10-16T15:05:23;19.30;99.90
25741;DHT22;13592;50.838;4.412;2022-10-16T15:07:55;19.50;99.90
25741;DHT22;13592;50.838;4.412;2022-10-16T15:10:38;19.50;99.90
25741;DHT22;13592;50.838;4.412;2022-10-16T15:13:13;19.40;99.90
25741;DHT22;13592;50.838;4.412;2022-10-16T15:16:10;19.30;99.90
25741;DHT22;13592;50.838;4.412;2022-10-16T15:18:50;19.20;99.90
25741;DHT22;13592;50.838;4.412;2022-10-16T15:24:18;19.20;99.90
25741;DHT22;13592;50.838;4.412;2022-10-16T15:26:44;19.10;99.90
25741;DHT22;13592;50.838;4.412;2022-10-16T15:29:18;19.10;99.90
25741;DHT22;13592;50.838;4.412;2022-10-16T15:31:43;19.00;99.90
25741;DHT22;13592;50.838;4.412;2022-10-16T15:37:03;19.00;99.90
25741;DHT22;13592;50.838;4.412;2022-10-16T15:39:36;18.90;99.90
25741;DHT22;13592;50.838;4.412;2022-10-16T15:42:06;19.00;99.90
25741;DHT22;13592;50.838;4.412;2022-10-16T15:49:55;18.80;99.90
25741;DHT22;13592;50.838;4.412;2022-10-16T15:52:21;18.70;99.90
25741;DHT22;13592;50.838;4.412;2022-10-16T15:54:59;18.70;99.90
25741;DHT22;13592;50.838;4.412;2022-10-16T15:57:27;18.60;99.90
25741;DHT22;13592;50.838;4.412;2022-10-16T15:59:58;18.50;99.90
25741;DHT22;13592;50.838;4.412;2022-10-16T16:05:32;18.50;99.90
25741;DHT22;13592;50.838;4.412;2022-10-16T16:08:20;18.50;99.90
25741;DHT22;13592;50.838;4.412;2022-10-16T16:11:06;18.50;99.90
25741;DHT22;13592;50.838;4.412;2022-10-16T16:13:36;18.50;99.90
25741;DHT22;13592;50.838;4.412;2022-10-16T16:16:13;18.40;99.90
25741;DHT22;13592;50.838;4.412;2022-10-16T16:18:50;18.40;99.90
25741;DHT22;13592;50.838;4.412;2022-10-16T16:21:23;18.40;99.90
25741;DHT22;13592;50.838;4.412;2022-10-16T16:23:55;18.30;99.90
25741;DHT22;13592;50.838;4.412;2022-10-16T16:26:23;18.30;99.90
25741;DHT22;13592;50.838;4.412;2022-10-16T16:28:51;18.30;99.90
25741;DHT22;13592;50.838;4.412;2022-10-16T16:31:36;18.30;99.90
25741;DHT22;13592;50.838;4.412;2022-10-16T16:34:03;18.20;99.90
25741;DHT22;13592;50.838;4.412;2022-10-16T16:36:29;18.20;99.90
25741;DHT22;13592;50.838;4.412;2022-10-16T16:39:11;18.20;99.90
25741;DHT22;13592;50.838;4.412;2022-10-16T16:41:38;18.20;99.90
25741;DHT22;13592;50.838;4.412;2022-10-16T16:44:12;18.20;99.90
25741;DHT22;13592;50.838;4.412;2022-10-16T16:52:41;18.00;99.90
25741;DHT22;13592;50.838;4.412;2022-10-16T17:06:23;18.40;99.90
25741;DHT22;13592;50.838;4.412;2022-10-16T17:09:05;18.70;99.90
25741;DHT22;13592;50.838;4.412;2022-10-16T17:11:44;18.50;99.90
25741;DHT22;13592;50.838;4.412;2022-10-16T17:14:39;18.20;99.90
25741;DHT22;13592;50.838;4.412;2022-10-16T17:19:38;17.80;99.90
25741;DHT22;13592;50.838;4.412;2022-10-16T17:22:08;17.50;99.90
25741;DHT22;13592;50.838;4.412;2022-10-16T17:24:40;17.40;99.90
25741;DHT22;13592;50.838;4.412;2022-10-16T17:27:08;17.30;99.90
25741;DHT22;13592;50.838;4.412;2022-10-16T17:29:49;17.20;99.90
25741;DHT22;13592;50.838;4.412;2022-10-16T17:32:18;17.30;99.90
25741;DHT22;13592;50.838;4.412;2022-10-16T17:37:18;17.10;99.90
25741;DHT22;13592;50.838;4.412;2022-10-16T17:39:44;17.10;99.90
25741;DHT22;13592;50.838;4.412;2022-10-16T17:42:17;17.10;99.90
25741;DHT22;13592;50.838;4.412;2022-10-16T17:44:43;17.00;99.90
25741;DHT22;13592;50.838;4.412;2022-10-16T17:47:11;17.00;99.90
25741;DHT22;13592;50.838;4.412;2022-10-16T17:52:19;17.00;99.90
25741;DHT22;13592;50.838;4.412;2022-10-16T17:54:44;17.00;99.90
25741;DHT22;13592;50.838;4.412;2022-10-16T17:57:18;17.00;99.90
25741;DHT22;13592;50.838;4.412;2022-10-16T17:59:54;16.90;99.90
25741;DHT22;13592;50.838;4.412;2022-10-16T18:02:31;16.90;99.90
25741;DHT22;13592;50.838;4.412;2022-10-16T18:05:00;16.90;99.90
25741;DHT22;13592;50.838;4.412;2022-10-16T18:07:26;16.90;99.90
25741;DHT22;13592;50.838;4.412;2022-10-16T18:12:24;16.90;99.90
25741;DHT22;13592;50.838;4.412;2022-10-16T18:14:58;16.80;99.90
25741;DHT22;13592;50.838;4.412;2022-10-16T18:17:33;16.90;99.90
25741;DHT22;13592;50.838;4.412;2022-10-16T18:22:33;16.80;99.90
25741;DHT22;13592;50.838;4.412;2022-10-16T18:25:01;17.00;99.90
25741;DHT22;13592;50.838;4.412;2022-10-16T18:27:31;17.00;99.90
25741;DHT22;13592;50.838;4.412;2022-10-16T18:29:58;16.90;99.90
25741;DHT22;13592;50.838;4.412;2022-10-16T18:32:25;16.80;99.90
25741;DHT22;13592;50.838;4.412;2022-10-16T18:34:52;16.90;99.90
25741;DHT22;13592;50.838;4.412;2022-10-16T18:37:22;16.80;99.90
25741;DHT22;13592;50.838;4.412;2022-10-16T18:42:19;16.70;99.90
25741;DHT22;13592;50.838;4.412;2022-10-16T18:44:46;16.80;99.90
25741;DHT22;13592;50.838;4.412;2022-10-16T18:47:12;16.80;99.90
25741;DHT22;13592;50.838;4.412;2022-10-16T18:49:38;16.80;99.90
25741;DHT22;13592;50.838;4.412;2022-10-16T18:52:04;16.80;99.90
25741;DHT22;13592;50.838;4.412;2022-10-16T18:54:36;16.80;99.90
25741;DHT22;13592;50.838;4.412;2022-10-16T18:57:04;16.80;99.90
25741;DHT22;13592;50.838;4.412;2022-10-16T18:59:33;16.90;99.90
25741;DHT22;13592;50.838;4.412;2022-10-16T19:04:29;17.20;99.90
25741;DHT22;13592;50.838;4.412;2022-10-16T19:06:56;17.10;99.90
25741;DHT22;13592;50.838;4.412;2022-10-16T19:09:28;17.20;99.90
25741;DHT22;13592;50.838;4.412;2022-10-16T19:14:25;17.10;99.90
25741;DHT22;13592;50.838;4.412;2022-10-16T19:16:53;17.00;99.90
25741;DHT22;13592;50.838;4.412;2022-10-16T19:19:19;16.90;99.90
25741;DHT22;13592;50.838;4.412;2022-10-16T19:21:44;16.90;99.90
25741;DHT22;13592;50.838;4.412;2022-10-16T19:24:13;17.10;99.90
25741;DHT22;13592;50.838;4.412;2022-10-16T19:26:40;17.10;99.90
25741;DHT22;13592;50.838;4.412;2022-10-16T19:29:14;17.10;99.90
25741;DHT22;13592;50.838;4.412;2022-10-16T19:34:08;17.50;99.90
25741;DHT22;13592;50.838;4.412;2022-10-16T19:36:44;17.40;99.90
25741;DHT22;13592;50.838;4.412;2022-10-16T19:39:13;17.20;99.90
25741;DHT22;13592;50.838;4.412;2022-10-16T19:41:43;17.20;99.90
25741;DHT22;13592;50.838;4.412;2022-10-16T19:44:17;17.00;99.90
25741;DHT22;13592;50.838;4.412;2022-10-16T19:46:53;16.90;99.90
25741;DHT22;13592;50.838;4.412;2022-10-16T19:49:24;16.80;99.90
25741;DHT22;13592;50.838;4.412;2022-10-16T19:52:05;16.80;99.90
25741;DHT22;13592;50.838;4.412;2022-10-16T19:54:44;16.80;99.90
25741;DHT22;13592;50.838;4.412;2022-10-16T19:57:12;16.70;99.90
25741;DHT22;13592;50.838;4.412;2022-10-16T19:59:41;16.70;99.90
25741;DHT22;13592;50.838;4.412;2022-10-16T20:10:25;16.90;99.90
25741;DHT22;13592;50.838;4.412;2022-10-16T20:15:39;16.80;99.90
25741;DHT22;13592;50.838;4.412;2022-10-16T20:18:05;16.80;99.90
25741;DHT22;13592;50.838;4.412;2022-10-16T20:23:49;16.80;99.90
25741;DHT22;13592;50.838;4.412;2022-10-16T20:26:15;16.80;99.90
25741;DHT22;13592;50.838;4.412;2022-10-16T20:28:43;16.80;99.90
25741;DHT22;13592;50.838;4.412;2022-10-16T20:34:39;16.80;99.90
25741;DHT22;13592;50.838;4.412;2022-10-16T20:37:06;16.80;99.90
25741;DHT22;13592;50.838;4.412;2022-10-16T20:42:01;16.70;99.90
25741;DHT22;13592;50.838;4.412;2022-10-16T20:44:29;16.70;99.90
25741;DHT22;13592;50.838;4.412;2022-10-16T20:50:02;16.80;99.90
25741;DHT22;13592;50.838;4.412;2022-10-16T20:52:53;16.70;99.90
25741;DHT22;13592;50.838;4.412;2022-10-16T20:55:27;16.70;99.90
25741;DHT22;13592;50.838;4.412;2022-10-16T20:57:55;16.60;99.90
25741;DHT22;13592;50.838;4.412;2022-10-16T21:03:35;16.60;99.90
25741;DHT22;13592;50.838;4.412;2022-10-16T21:06:08;16.60;99.90
25741;DHT22;13592;50.838;4.412;2022-10-16T21:08:41;16.50;99.90
25741;DHT22;13592;50.838;4.412;2022-10-16T21:13:55;16.50;99.90
25741;DHT22;13592;50.838;4.412;2022-10-16T21:16:45;16.50;99.90
25741;DHT22;13592;50.838;4.412;2022-10-16T21:19:22;16.50;99.90
25741;DHT22;13592;50.838;4.412;2022-10-16T21:22:04;16.40;99.90
25741;DHT22;13592;50.838;4.412;2022-10-16T21:27:41;16.40;99.90
25741;DHT22;13592;50.838;4.412;2022-10-16T21:30:16;16.50;99.90
25741;DHT22;13592;50.838;4.412;2022-10-16T21:33:10;16.50;99.90
25741;DHT22;13592;50.838;4.412;2022-10-16T21:35:37;16.50;99.90
25741;DHT22;13592;50.838;4.412;2022-10-16T21:38:08;16.50;99.90
25741;DHT22;13592;50.838;4.412;2022-10-16T21:40:50;16.50;99.90
25741;DHT22;13592;50.838;4.412;2022-10-16T21:43:20;16.50;99.90
25741;DHT22;13592;50.838;4.412;2022-10-16T21:45:53;16.60;99.90
25741;DHT22;13592;50.838;4.412;2022-10-16T21:48:26;16.60;99.90
25741;DHT22;13592;50.838;4.412;2022-10-16T21:50:53;16.60;99.90
25741;DHT22;13592;50.838;4.412;2022-10-16T21:53:21;16.60;99.90
25741;DHT22;13592;50.838;4.412;2022-10-16T21:55:48;16.60;99.90
25741;DHT22;13592;50.838;4.412;2022-10-16T21:58:14;16.70;99.90
25741;DHT22;13592;50.838;4.412;2022-10-16T22:00:47;16.80;99.90
25741;DHT22;13592;50.838;4.412;2022-10-16T22:03:20;16.80;99.90
25741;DHT22;13592;50.838;4.412;2022-10-16T22:06:01;16.70;99.90
25741;DHT22;13592;50.838;4.412;2022-10-16T22:08:31;16.70;99.90
25741;DHT22;13592;50.838;4.412;2022-10-16T22:11:11;16.70;99.90
25741;DHT22;13592;50.838;4.412;2022-10-16T22:13:42;16.80;99.90